sensor_id;sensor_type;location;lat;lon;timestamp;pressure;altitude;pressure_sealevel;temperature
67509;BMP280;54354;44.724;11.284;2023-04-03T00:01:27;101264.63;;;15.52
67509;BMP280;54354;44.724;11.284;2023-04-03T00:03:53;101266.13;;;15.53
67509;BMP280;54354;44.724;11.284;2023-04-03T00:06:19;101269.09;;;15.55
67509;BMP280;54354;44.724;11.284;2023-04-03T00:08:44;101269.09;;;15.55
67509;BMP280;54354;44.724;11.284;2023-04-03T00:11:10;101260.69;;;15.57
67509;BMP280;54354;44.724;11.284;2023-04-03T00:13:36;101259.53;;;15.58
67509;BMP280;54354;44.724;11.284;2023-04-03T00:16:02;101256.19;;;15.54
67509;BMP280;54354;44.724;11.284;2023-04-03T00:18:29;101247.13;;;15.51
67509;BMP280;54354;44.724;11.284;2023-04-03T00:20:54;101251.72;;;15.51
67509;BMP280;54354;44.724;11.284;2023-04-03T00:23:20;101241.44;;;15.49
67509;BMP280;54354;44.724;11.284;2023-04-03T00:25:46;101249.16;;;15.47
67509;BMP280;54354;44.724;11.284;2023-04-03T00:28:11;101246.91;;;15.46
67509;BMP280;54354;44.724;11.284;2023-04-03T00:30:37;101242.00;;;15.44
67509;BMP280;54354;44.724;11.284;2023-04-03T00:33:02;101242.53;;;15.39
67509;BMP280;54354;44.724;11.284;2023-04-03T00:35:28;101239.63;;;15.33
67509;BMP280;54354;44.724;11.284;2023-04-03T00:37:55;101247.06;;;15.26
67509;BMP280;54354;44.724;11.284;2023-04-03T00:40:23;101241.53;;;15.20
67509;BMP280;54354;44.724;11.284;2023-04-03T00:42:55;101236.63;;;15.19
67509;BMP280;54354;44.724;11.284;2023-04-03T00:45:34;101234.59;;;15.23
67509;BMP280;54354;44.724;11.284;2023-04-03T00:48:01;101234.06;;;15.28
67509;BMP280;54354;44.724;11.284;2023-04-03T00:50:29;101232.91;;;15.29
67509;BMP280;54354;44.724;11.284;2023-04-03T00:52:56;101229.81;;;15.30
67509;BMP280;54354;44.724;11.284;2023-04-03T00:55:22;101237.38;;;15.32
67509;BMP280;54354;44.724;11.284;2023-04-03T00:57:48;101236.72;;;15.28
67509;BMP280;54354;44.724;11.284;2023-04-03T01:00:16;101244.19;;;15.20
67509;BMP280;54354;44.724;11.284;2023-04-03T01:02:43;101242.59;;;15.23
67509;BMP280;54354;44.724;11.284;2023-04-03T01:05:12;101239.19;;;15.22
67509;BMP280;54354;44.724;11.284;2023-04-03T01:07:40;101236.19;;;15.20
67509;BMP280;54354;44.724;11.284;2023-04-03T01:10:09;101239.72;;;15.17
67509;BMP280;54354;44.724;11.284;2023-04-03T01:12:39;101237.13;;;15.13
67509;BMP280;54354;44.724;11.284;2023-04-03T01:15:12;101228.38;;;15.13
67509;BMP280;54354;44.724;11.284;2023-04-03T01:17:44;101224.84;;;15.16
67509;BMP280;54354;44.724;11.284;2023-04-03T01:25:31;101231.63;;;15.33
67509;BMP280;54354;44.724;11.284;2023-04-03T01:27:58;101229.69;;;15.34
67509;BMP280;54354;44.724;11.284;2023-04-03T01:30:30;101235.59;;;15.29
67509;BMP280;54354;44.724;11.284;2023-04-03T01:32:56;101222.88;;;15.33
67509;BMP280;54354;44.724;11.284;2023-04-03T01:35:23;101223.75;;;15.30
67509;BMP280;54354;44.724;11.284;2023-04-03T01:37:48;101223.75;;;15.30
67509;BMP280;54354;44.724;11.284;2023-04-03T01:40:14;101205.47;;;15.28
67509;BMP280;54354;44.724;11.284;2023-04-03T01:42:39;101217.94;;;15.31
67509;BMP280;54354;44.724;11.284;2023-04-03T01:45:05;101215.72;;;15.30
67509;BMP280;54354;44.724;11.284;2023-04-03T01:47:31;101220.53;;;15.35
67509;BMP280;54354;44.724;11.284;2023-04-03T01:49:56;101221.06;;;15.43
67509;BMP280;54354;44.724;11.284;2023-04-03T01:52:22;101217.53;;;15.46
67509;BMP280;54354;44.724;11.284;2023-04-03T01:54:50;101223.09;;;15.51
67509;BMP280;54354;44.724;11.284;2023-04-03T01:57:16;101225.66;;;15.55
67509;BMP280;54354;44.724;11.284;2023-04-03T01:59:42;101226.84;;;15.54
67509;BMP280;54354;44.724;11.284;2023-04-03T02:02:08;101221.94;;;15.52
67509;BMP280;54354;44.724;11.284;2023-04-03T02:04:35;101224.69;;;15.49
67509;BMP280;54354;44.724;11.284;2023-04-03T02:07:00;101215.09;;;15.51
67509;BMP280;54354;44.724;11.284;2023-04-03T02:09:26;101208.28;;;15.50
67509;BMP280;54354;44.724;11.284;2023-04-03T02:11:52;101210.59;;;15.48
67509;BMP280;54354;44.724;11.284;2023-04-03T02:14:18;101213.59;;;15.50
67509;BMP280;54354;44.724;11.284;2023-04-03T02:16:44;101216.69;;;15.49
67509;BMP280;54354;44.724;11.284;2023-04-03T02:19:10;101209.53;;;15.46
67509;BMP280;54354;44.724;11.284;2023-04-03T02:21:35;101216.91;;;15.42
67509;BMP280;54354;44.724;11.284;2023-04-03T02:24:01;101212.00;;;15.40
67509;BMP280;54354;44.724;11.284;2023-04-03T02:26:26;101211.75;;;15.34
67509;BMP280;54354;44.724;11.284;2023-04-03T02:28:52;101216.13;;;15.28
67509;BMP280;54354;44.724;11.284;2023-04-03T02:31:17;101217.09;;;15.22
67509;BMP280;54354;44.724;11.284;2023-04-03T02:33:45;101222.94;;;15.17
67509;BMP280;54354;44.724;11.284;2023-04-03T02:36:13;101212.81;;;15.11
67509;BMP280;54354;44.724;11.284;2023-04-03T02:38:41;101226.97;;;15.08
67509;BMP280;54354;44.724;11.284;2023-04-03T02:41:10;101218.75;;;15.03
67509;BMP280;54354;44.724;11.284;2023-04-03T02:43:36;101221.66;;;15.08
67509;BMP280;54354;44.724;11.284;2023-04-03T02:46:04;101210.56;;;15.10
67509;BMP280;54354;44.724;11.284;2023-04-03T02:48:30;101215.13;;;15.09
67509;BMP280;54354;44.724;11.284;2023-04-03T02:50:56;101207.25;;;15.06
67509;BMP280;54354;44.724;11.284;2023-04-03T02:53:21;101208.19;;;14.99
67509;BMP280;54354;44.724;11.284;2023-04-03T02:55:48;101204.94;;;14.92
67509;BMP280;54354;44.724;11.284;2023-04-03T02:58:14;101202.81;;;14.86
67509;BMP280;54354;44.724;11.284;2023-04-03T03:00:40;101208.13;;;14.86
67509;BMP280;54354;44.724;11.284;2023-04-03T03:03:05;101197.59;;;14.83
67509;BMP280;54354;44.724;11.284;2023-04-03T03:05:31;101197.66;;;14.79
67509;BMP280;54354;44.724;11.284;2023-04-03T03:07:57;101199.91;;;14.81
67509;BMP280;54354;44.724;11.284;2023-04-03T03:10:23;101202.81;;;14.86
67509;BMP280;54354;44.724;11.284;2023-04-03T03:12:49;101189.91;;;14.85
67509;BMP280;54354;44.724;11.284;2023-04-03T03:15:15;101199.06;;;14.84
67509;BMP280;54354;44.724;11.284;2023-04-03T03:17:41;101200.56;;;14.85
67509;BMP280;54354;44.724;11.284;2023-04-03T03:20:07;101194.56;;;14.81
67509;BMP280;54354;44.724;11.284;2023-04-03T03:22:33;101192.03;;;14.77
67509;BMP280;54354;44.724;11.284;2023-04-03T03:24:59;101197.44;;;14.74
67509;BMP280;54354;44.724;11.284;2023-04-03T03:27:24;101196.06;;;14.69
67509;BMP280;54354;44.724;11.284;2023-04-03T03:29:50;101193.69;;;14.71
67509;BMP280;54354;44.724;11.284;2023-04-03T03:32:16;101187.94;;;14.73
67509;BMP280;54354;44.724;11.284;2023-04-03T03:34:41;101196.38;;;14.71
67509;BMP280;54354;44.724;11.284;2023-04-03T03:37:07;101188.88;;;14.66
67509;BMP280;54354;44.724;11.284;2023-04-03T03:39:33;101199.22;;;14.64
67509;BMP280;54354;44.724;11.284;2023-04-03T03:41:58;101198.78;;;14.66
67509;BMP280;54354;44.724;11.284;2023-04-03T03:44:24;101199.13;;;14.68
67509;BMP280;54354;44.724;11.284;2023-04-03T03:46:49;101199.13;;;14.68
67509;BMP280;54354;44.724;11.284;2023-04-03T03:49:15;101199.13;;;14.68
67509;BMP280;54354;44.724;11.284;2023-04-03T03:51:41;101198.38;;;14.67
67509;BMP280;54354;44.724;11.284;2023-04-03T03:54:07;101202.94;;;14.67
67509;BMP280;54354;44.724;11.284;2023-04-03T03:56:33;101212.78;;;14.70
67509;BMP280;54354;44.724;11.284;2023-04-03T03:58:59;101214.28;;;14.71
67509;BMP280;54354;44.724;11.284;2023-04-03T04:01:25;101213.53;;;14.70
67509;BMP280;54354;44.724;11.284;2023-04-03T04:03:51;101214.28;;;14.71
67509;BMP280;54354;44.724;11.284;2023-04-03T04:06:22;101205.13;;;14.72
67509;BMP280;54354;44.724;11.284;2023-04-03T04:08:49;101216.09;;;14.74
67509;BMP280;54354;44.724;11.284;2023-04-03T04:11:14;101215.59;;;14.79
67509;BMP280;54354;44.724;11.284;2023-04-03T04:13:41;101218.69;;;14.77
67509;BMP280;54354;44.724;11.284;2023-04-03T04:16:09;101219.41;;;14.78
67509;BMP280;54354;44.724;11.284;2023-04-03T04:18:35;101212.91;;;14.79
67509;BMP280;54354;44.724;11.284;2023-04-03T04:21:00;101221.34;;;14.77
67509;BMP280;54354;44.724;11.284;2023-04-03T04:23:27;101230.59;;;14.73
67509;BMP280;54354;44.724;11.284;2023-04-03T04:25:52;101226.53;;;14.68
67509;BMP280;54354;44.724;11.284;2023-04-03T04:28:19;101219.81;;;14.64
67509;BMP280;54354;44.724;11.284;2023-04-03T04:30:46;101216.78;;;14.62
67509;BMP280;54354;44.724;11.284;2023-04-03T04:33:13;101219.88;;;14.60
67509;BMP280;54354;44.724;11.284;2023-04-03T04:35:42;101213.81;;;14.59
67509;BMP280;54354;44.724;11.284;2023-04-03T04:38:09;101220.19;;;14.62
67509;BMP280;54354;44.724;11.284;2023-04-03T04:40:35;101224.03;;;14.61
67509;BMP280;54354;44.724;11.284;2023-04-03T04:43:01;101225.63;;;14.58
67509;BMP280;54354;44.724;11.284;2023-04-03T04:45:26;101227.63;;;14.54
67509;BMP280;54354;44.724;11.284;2023-04-03T04:47:55;101226.72;;;14.45
67509;BMP280;54354;44.724;11.284;2023-04-03T04:50:22;101233.47;;;14.49
67509;BMP280;54354;44.724;11.284;2023-04-03T04:52:48;101237.06;;;14.43
67509;BMP280;54354;44.724;11.284;2023-04-03T04:55:14;101234.47;;;14.39
67509;BMP280;54354;44.724;11.284;2023-04-03T04:57:40;101236.81;;;14.37
67509;BMP280;54354;44.724;11.284;2023-04-03T05:00:07;101231.22;;;14.31
67509;BMP280;54354;44.724;11.284;2023-04-03T05:02:33;101234.31;;;14.30
67509;BMP280;54354;44.724;11.284;2023-04-03T05:04:59;101230.16;;;14.29
67509;BMP280;54354;44.724;11.284;2023-04-03T05:07:30;101231.38;;;14.24
67509;BMP280;54354;44.724;11.284;2023-04-03T05:09:57;101224.00;;;14.32
67509;BMP280;54354;44.724;11.284;2023-04-03T05:12:23;101230.75;;;14.37
67509;BMP280;54354;44.724;11.284;2023-04-03T05:14:54;101232.59;;;14.40
67509;BMP280;54354;44.724;11.284;2023-04-03T05:17:20;101242.72;;;14.45
67509;BMP280;54354;44.724;11.284;2023-04-03T05:19:49;101243.63;;;14.54
67509;BMP280;54354;44.724;11.284;2023-04-03T05:22:16;101248.97;;;14.54
67509;BMP280;54354;44.724;11.284;2023-04-03T05:24:42;101259.19;;;14.56
67509;BMP280;54354;44.724;11.284;2023-04-03T05:27:08;101262.72;;;14.53
67509;BMP280;54354;44.724;11.284;2023-04-03T05:29:38;101252.28;;;14.58
67509;BMP280;54354;44.724;11.284;2023-04-03T05:32:04;101258.88;;;14.54
67509;BMP280;54354;44.724;11.284;2023-04-03T05:34:30;101255.13;;;14.51
67509;BMP280;54354;44.724;11.284;2023-04-03T05:36:56;101244.88;;;14.50
67509;BMP280;54354;44.724;11.284;2023-04-03T05:39:21;101241.81;;;14.51
67509;BMP280;54354;44.724;11.284;2023-04-03T05:41:48;101243.69;;;14.51
67509;BMP280;54354;44.724;11.284;2023-04-03T05:44:13;101249.69;;;14.55
67509;BMP280;54354;44.724;11.284;2023-04-03T05:46:42;101244.94;;;14.63
67509;BMP280;54354;44.724;11.284;2023-04-03T05:49:08;101250.84;;;14.70
67509;BMP280;54354;44.724;11.284;2023-04-03T05:51:36;101254.16;;;14.74
67509;BMP280;54354;44.724;11.284;2023-04-03T05:54:26;101257.06;;;14.80
67509;BMP280;54354;44.724;11.284;2023-04-03T05:56:56;101255.72;;;14.88
67509;BMP280;54354;44.724;11.284;2023-04-03T05:59:23;101263.63;;;14.92
67509;BMP280;54354;44.724;11.284;2023-04-03T06:01:51;101265.47;;;14.95
67509;BMP280;54354;44.724;11.284;2023-04-03T06:04:18;101266.53;;;14.97
67509;BMP280;54354;44.724;11.284;2023-04-03T06:06:46;101262.69;;;14.98
67509;BMP280;54354;44.724;11.284;2023-04-03T06:09:13;101258.75;;;15.03
67509;BMP280;54354;44.724;11.284;2023-04-03T06:11:39;101263.91;;;15.10
67509;BMP280;54354;44.724;11.284;2023-04-03T06:14:05;101268.72;;;15.15
67509;BMP280;54354;44.724;11.284;2023-04-03T06:16:31;101272.03;;;15.19
67509;BMP280;54354;44.724;11.284;2023-04-03T06:18:58;101272.72;;;15.23
67509;BMP280;54354;44.724;11.284;2023-04-03T06:21:24;101273.69;;;15.29
67509;BMP280;54354;44.724;11.284;2023-04-03T06:23:49;101276.59;;;15.35
67509;BMP280;54354;44.724;11.284;2023-04-03T06:26:17;101274.88;;;15.41
67509;BMP280;54354;44.724;11.284;2023-04-03T06:28:42;101277.56;;;15.54
67509;BMP280;54354;44.724;11.284;2023-04-03T06:31:08;101286.66;;;15.69
67509;BMP280;54354;44.724;11.284;2023-04-03T06:33:34;101286.34;;;15.80
67509;BMP280;54354;44.724;11.284;2023-04-03T06:36:03;101286.31;;;15.92
67509;BMP280;54354;44.724;11.284;2023-04-03T06:38:28;101285.97;;;16.03
67509;BMP280;54354;44.724;11.284;2023-04-03T06:40:54;101290.16;;;16.17
67509;BMP280;54354;44.724;11.284;2023-04-03T06:43:21;101285.66;;;16.27
67509;BMP280;54354;44.724;11.284;2023-04-03T06:45:48;101291.81;;;16.49
67509;BMP280;54354;44.724;11.284;2023-04-03T06:48:14;101284.31;;;16.79
67509;BMP280;54354;44.724;11.284;2023-04-03T06:50:39;101292.19;;;17.17
67509;BMP280;54354;44.724;11.284;2023-04-03T06:53:05;101298.63;;;17.59
67509;BMP280;54354;44.724;11.284;2023-04-03T06:55:32;101294.59;;;18.04
67509;BMP280;54354;44.724;11.284;2023-04-03T06:57:57;101298.66;;;18.46
67509;BMP280;54354;44.724;11.284;2023-04-03T07:00:23;101294.31;;;18.85
67509;BMP280;54354;44.724;11.284;2023-04-03T07:02:48;101303.03;;;19.22
67509;BMP280;54354;44.724;11.284;2023-04-03T07:05:14;101303.38;;;19.48
67509;BMP280;54354;44.724;11.284;2023-04-03T07:07:39;101302.97;;;19.73
67509;BMP280;54354;44.724;11.284;2023-04-03T07:10:07;101302.66;;;19.95
67509;BMP280;54354;44.724;11.284;2023-04-03T07:12:33;101304.16;;;20.20
67509;BMP280;54354;44.724;11.284;2023-04-03T07:14:59;101305.94;;;20.38
67509;BMP280;54354;44.724;11.284;2023-04-03T07:17:24;101303.03;;;20.51
67509;BMP280;54354;44.724;11.284;2023-04-03T07:19:51;101303.38;;;20.58
67509;BMP280;54354;44.724;11.284;2023-04-03T07:22:17;101302.38;;;20.70
67509;BMP280;54354;44.724;11.284;2023-04-03T07:24:43;101312.38;;;20.85
67509;BMP280;54354;44.724;11.284;2023-04-03T07:27:08;101309.25;;;21.01
67509;BMP280;54354;44.724;11.284;2023-04-03T07:29:35;101316.47;;;21.10
67509;BMP280;54354;44.724;11.284;2023-04-03T07:32:01;101314.13;;;21.17
67509;BMP280;54354;44.724;11.284;2023-04-03T07:34:27;101322.03;;;21.21
67509;BMP280;54354;44.724;11.284;2023-04-03T07:36:52;101331.66;;;21.27
67509;BMP280;54354;44.724;11.284;2023-04-03T07:39:18;101325.19;;;21.34
67509;BMP280;54354;44.724;11.284;2023-04-03T07:41:44;101326.25;;;21.42
67509;BMP280;54354;44.724;11.284;2023-04-03T07:44:09;101325.88;;;21.49
67509;BMP280;54354;44.724;11.284;2023-04-03T07:46:36;101320.06;;;21.56
67509;BMP280;54354;44.724;11.284;2023-04-03T07:49:02;101325.81;;;21.64
67509;BMP280;54354;44.724;11.284;2023-04-03T07:51:27;101328.31;;;21.68
67509;BMP280;54354;44.724;11.284;2023-04-03T07:53:54;101327.34;;;21.71
67509;BMP280;54354;44.724;11.284;2023-04-03T07:56:21;101324.94;;;21.73
67509;BMP280;54354;44.724;11.284;2023-04-03T07:58:46;101326.22;;;21.77
67509;BMP280;54354;44.724;11.284;2023-04-03T08:01:12;101320.69;;;21.86
67509;BMP280;54354;44.724;11.284;2023-04-03T08:03:38;101324.75;;;21.97
67509;BMP280;54354;44.724;11.284;2023-04-03T08:06:06;101328.25;;;22.03
67509;BMP280;54354;44.724;11.284;2023-04-03T08:08:32;101324.44;;;22.15
67509;BMP280;54354;44.724;11.284;2023-04-03T08:10:59;101332.63;;;22.21
67509;BMP280;54354;44.724;11.284;2023-04-03T08:13:26;101334.84;;;22.22
67509;BMP280;54354;44.724;11.284;2023-04-03T08:15:52;101339.50;;;22.22
67509;BMP280;54354;44.724;11.284;2023-04-03T08:18:18;101337.28;;;22.20
67509;BMP280;54354;44.724;11.284;2023-04-03T08:20:46;101338.97;;;22.17
67509;BMP280;54354;44.724;11.284;2023-04-03T08:23:12;101339.63;;;22.12
67509;BMP280;54354;44.724;11.284;2023-04-03T08:25:39;101337.03;;;21.98
67509;BMP280;54354;44.724;11.284;2023-04-03T08:28:05;101339.41;;;21.90
67509;BMP280;54354;44.724;11.284;2023-04-03T08:30:32;101340.50;;;21.83
67509;BMP280;54354;44.724;11.284;2023-04-03T08:33:00;101334.53;;;21.74
67509;BMP280;54354;44.724;11.284;2023-04-03T08:35:27;101339.09;;;21.68
67509;BMP280;54354;44.724;11.284;2023-04-03T08:37:53;101342.72;;;21.65
67509;BMP280;54354;44.724;11.284;2023-04-03T08:40:18;101339.94;;;21.59
67509;BMP280;54354;44.724;11.284;2023-04-03T08:42:51;101340.28;;;21.46
67509;BMP280;54354;44.724;11.284;2023-04-03T08:45:21;101337.50;;;21.41
67509;BMP280;54354;44.724;11.284;2023-04-03T08:48:12;101336.97;;;21.37
67509;BMP280;54354;44.724;11.284;2023-04-03T08:50:41;101338.06;;;21.30
67509;BMP280;54354;44.724;11.284;2023-04-03T08:53:17;101335.66;;;21.32
67509;BMP280;54354;44.724;11.284;2023-04-03T08:55:49;101324.78;;;21.26
67509;BMP280;54354;44.724;11.284;2023-04-03T08:58:18;101337.03;;;21.27
67509;BMP280;54354;44.724;11.284;2023-04-03T09:00:55;101330.72;;;21.30
67509;BMP280;54354;44.724;11.284;2023-04-03T09:03:22;101328.69;;;21.40
67509;BMP280;54354;44.724;11.284;2023-04-03T09:10:49;101327.53;;;21.47
67509;BMP280;54354;44.724;11.284;2023-04-03T09:15:45;101322.63;;;21.45
67509;BMP280;54354;44.724;11.284;2023-04-03T09:18:21;101335.44;;;21.36
67509;BMP280;54354;44.724;11.284;2023-04-03T09:21:02;101331.31;;;21.20
67509;BMP280;54354;44.724;11.284;2023-04-03T09:23:50;101335.69;;;21.17
67509;BMP280;54354;44.724;11.284;2023-04-03T09:26:24;101329.28;;;21.00
67509;BMP280;54354;44.724;11.284;2023-04-03T09:29:00;101330.00;;;20.86
67509;BMP280;54354;44.724;11.284;2023-04-03T09:31:30;101331.81;;;20.74
67509;BMP280;54354;44.724;11.284;2023-04-03T09:34:00;101333.19;;;20.69
67509;BMP280;54354;44.724;11.284;2023-04-03T09:37:03;101325.94;;;20.76
67509;BMP280;54354;44.724;11.284;2023-04-03T09:39:33;101316.38;;;20.60
67509;BMP280;54354;44.724;11.284;2023-04-03T09:42:23;101320.44;;;20.55
67509;BMP280;54354;44.724;11.284;2023-04-03T09:45:04;101316.84;;;20.58
67509;BMP280;54354;44.724;11.284;2023-04-03T09:47:35;101317.84;;;20.61
67509;BMP280;54354;44.724;11.284;2023-04-03T09:52:44;101307.13;;;20.76
67509;BMP280;54354;44.724;11.284;2023-04-03T09:57:40;101311.19;;;21.00
67509;BMP280;54354;44.724;11.284;2023-04-03T10:00:20;101306.38;;;21.05
67509;BMP280;54354;44.724;11.284;2023-04-03T10:02:51;101306.59;;;21.07
67509;BMP280;54354;44.724;11.284;2023-04-03T10:10:41;101306.31;;;21.19
67509;BMP280;54354;44.724;11.284;2023-04-03T10:13:11;101300.38;;;21.15
67509;BMP280;54354;44.724;11.284;2023-04-03T10:15:46;101295.56;;;21.19
67509;BMP280;54354;44.724;11.284;2023-04-03T10:20:48;101294.81;;;21.34
67509;BMP280;54354;44.724;11.284;2023-04-03T10:23:24;101297.34;;;21.43
67509;BMP280;54354;44.724;11.284;2023-04-03T10:26:21;101295.66;;;21.45
67509;BMP280;54354;44.724;11.284;2023-04-03T10:32:09;101290.09;;;21.89
67509;BMP280;54354;44.724;11.284;2023-04-03T10:34:42;101295.38;;;21.58
67509;BMP280;54354;44.724;11.284;2023-04-03T10:37:28;101301.25;;;21.42
67509;BMP280;54354;44.724;11.284;2023-04-03T10:40:45;101304.47;;;21.25
67509;BMP280;54354;44.724;11.284;2023-04-03T10:43:04;101303.75;;;21.10
67509;BMP280;54354;44.724;11.284;2023-04-03T10:48:23;101292.91;;;20.90
67509;BMP280;54354;44.724;11.284;2023-04-03T10:54:08;101301.81;;;20.96
67509;BMP280;54354;44.724;11.284;2023-04-03T10:59:30;101308.03;;;20.87
67509;BMP280;54354;44.724;11.284;2023-04-03T11:02:16;101300.34;;;20.80
67509;BMP280;54354;44.724;11.284;2023-04-03T11:04:44;101307.38;;;20.78
67509;BMP280;54354;44.724;11.284;2023-04-03T11:07:33;101303.47;;;20.79
67509;BMP280;54354;44.724;11.284;2023-04-03T11:10:03;101301.69;;;21.20
67509;BMP280;54354;44.724;11.284;2023-04-03T11:12:44;101303.19;;;20.91
67509;BMP280;54354;44.724;11.284;2023-04-03T11:15:15;101302.09;;;20.83
67509;BMP280;54354;44.724;11.284;2023-04-03T11:17:46;101294.56;;;20.72
67509;BMP280;54354;44.724;11.284;2023-04-03T11:20:26;101286.97;;;20.56
67509;BMP280;54354;44.724;11.284;2023-04-03T11:25:25;101281.84;;;20.58
67509;BMP280;54354;44.724;11.284;2023-04-03T11:27:56;101274.41;;;20.38
67509;BMP280;54354;44.724;11.284;2023-04-03T11:38:46;101261.63;;;20.48
67509;BMP280;54354;44.724;11.284;2023-04-03T11:41:13;101252.44;;;20.55
67509;BMP280;54354;44.724;11.284;2023-04-03T11:46:21;101252.25;;;20.73
67509;BMP280;54354;44.724;11.284;2023-04-03T11:48:49;101251.91;;;20.80
67509;BMP280;54354;44.724;11.284;2023-04-03T11:53:45;101248.66;;;21.46
67509;BMP280;54354;44.724;11.284;2023-04-03T11:56:31;101241.47;;;21.23
67509;BMP280;54354;44.724;11.284;2023-04-03T12:01:53;101239.84;;;21.11
67509;BMP280;54354;44.724;11.284;2023-04-03T12:04:21;101227.13;;;21.11
67509;BMP280;54354;44.724;11.284;2023-04-03T12:06:49;101231.13;;;21.16
67509;BMP280;54354;44.724;11.284;2023-04-03T12:11:51;101226.91;;;21.15
67509;BMP280;54354;44.724;11.284;2023-04-03T12:14:17;101228.81;;;21.09
67509;BMP280;54354;44.724;11.284;2023-04-03T12:16:46;101218.34;;;20.96
67509;BMP280;54354;44.724;11.284;2023-04-03T12:24:28;101206.63;;;20.99
67509;BMP280;54354;44.724;11.284;2023-04-03T12:40:24;101195.59;;;20.97
67509;BMP280;54354;44.724;11.284;2023-04-03T12:45:58;101192.53;;;20.89
67509;BMP280;54354;44.724;11.284;2023-04-03T12:48:28;101185.16;;;20.84
67509;BMP280;54354;44.724;11.284;2023-04-03T12:50:56;101185.69;;;20.88
67509;BMP280;54354;44.724;11.284;2023-04-03T12:53:27;101192.19;;;20.82
67509;BMP280;54354;44.724;11.284;2023-04-03T12:55:57;101185.84;;;20.85
67509;BMP280;54354;44.724;11.284;2023-04-03T12:58:27;101182.34;;;20.79
67509;BMP280;54354;44.724;11.284;2023-04-03T13:03:25;101183.28;;;20.76
67509;BMP280;54354;44.724;11.284;2023-04-03T13:05:56;101172.44;;;20.70
67509;BMP280;54354;44.724;11.284;2023-04-03T13:08:22;101192.38;;;20.78
67509;BMP280;54354;44.724;11.284;2023-04-03T13:11:05;101188.94;;;20.78
67509;BMP280;54354;44.724;11.284;2023-04-03T13:13:31;101180.69;;;20.81
67509;BMP280;54354;44.724;11.284;2023-04-03T13:15:57;101189.50;;;20.82
67509;BMP280;54354;44.724;11.284;2023-04-03T13:18:34;101181.81;;;20.75
67509;BMP280;54354;44.724;11.284;2023-04-03T13:21:07;101169.94;;;20.66
67509;BMP280;54354;44.724;11.284;2023-04-03T13:23:36;101169.66;;;20.64
67509;BMP280;54354;44.724;11.284;2023-04-03T13:26:03;101158.88;;;20.64
67509;BMP280;54354;44.724;11.284;2023-04-03T13:28:30;101161.88;;;20.66
67509;BMP280;54354;44.724;11.284;2023-04-03T13:31:04;101160.00;;;20.72
67509;BMP280;54354;44.724;11.284;2023-04-03T13:33:34;101148.78;;;20.74
67509;BMP280;54354;44.724;11.284;2023-04-03T13:36:21;101159.44;;;20.83
67509;BMP280;54354;44.724;11.284;2023-04-03T13:39:07;101151.81;;;20.82
67509;BMP280;54354;44.724;11.284;2023-04-03T13:41:51;101155.97;;;20.83
67509;BMP280;54354;44.724;11.284;2023-04-03T13:46:46;101150.41;;;20.86
67509;BMP280;54354;44.724;11.284;2023-04-03T13:49:22;101157.47;;;20.84
67509;BMP280;54354;44.724;11.284;2023-04-03T13:51:52;101161.19;;;20.86
67509;BMP280;54354;44.724;11.284;2023-04-03T13:54:38;101152.53;;;20.82
67509;BMP280;54354;44.724;11.284;2023-04-03T13:57:15;101147.56;;;20.75
67509;BMP280;54354;44.724;11.284;2023-04-03T13:59:45;101146.63;;;20.78
67509;BMP280;54354;44.724;11.284;2023-04-03T14:02:19;101141.91;;;20.73
67509;BMP280;54354;44.724;11.284;2023-04-03T14:04:51;101147.84;;;20.77
67509;BMP280;54354;44.724;11.284;2023-04-03T14:07:18;101136.31;;;20.77
67509;BMP280;54354;44.724;11.284;2023-04-03T14:09:46;101158.66;;;20.83
67509;BMP280;54354;44.724;11.284;2023-04-03T14:12:20;101148.38;;;20.81
67509;BMP280;54354;44.724;11.284;2023-04-03T14:14:47;101136.19;;;20.86
67509;BMP280;54354;44.724;11.284;2023-04-03T14:17:18;101134.72;;;20.85
67509;BMP280;54354;44.724;11.284;2023-04-03T14:19:45;101144.34;;;20.91
67509;BMP280;54354;44.724;11.284;2023-04-03T14:22:21;101141.66;;;20.91
67509;BMP280;54354;44.724;11.284;2023-04-03T14:24:49;101146.88;;;20.95
67509;BMP280;54354;44.724;11.284;2023-04-03T14:27:20;101144.09;;;20.89
67509;BMP280;54354;44.724;11.284;2023-04-03T14:29:48;101145.31;;;20.88
67509;BMP280;54354;44.724;11.284;2023-04-03T14:32:16;101138.88;;;20.86
67509;BMP280;54354;44.724;11.284;2023-04-03T14:34:42;101130.56;;;20.84
67509;BMP280;54354;44.724;11.284;2023-04-03T14:37:16;101128.78;;;20.81
67509;BMP280;54354;44.724;11.284;2023-04-03T14:39:44;101128.88;;;20.86
67509;BMP280;54354;44.724;11.284;2023-04-03T14:42:16;101128.31;;;20.82
67509;BMP280;54354;44.724;11.284;2023-04-03T14:44:42;101124.97;;;20.87
67509;BMP280;54354;44.724;11.284;2023-04-03T14:47:12;101129.31;;;20.85
67509;BMP280;54354;44.724;11.284;2023-04-03T14:49:39;101127.88;;;20.84
67509;BMP280;54354;44.724;11.284;2023-04-03T14:52:06;101124.88;;;20.82
67509;BMP280;54354;44.724;11.284;2023-04-03T14:54:31;101124.44;;;20.83
67509;BMP280;54354;44.724;11.284;2023-04-03T14:56:59;101121.19;;;20.79
67509;BMP280;54354;44.724;11.284;2023-04-03T14:59:26;101120.44;;;20.79
67509;BMP280;54354;44.724;11.284;2023-04-03T15:01:52;101117.97;;;20.75
67509;BMP280;54354;44.724;11.284;2023-04-03T15:04:22;101114.91;;;20.67
67509;BMP280;54354;44.724;11.284;2023-04-03T15:06:51;101114.19;;;20.67
67509;BMP280;54354;44.724;11.284;2023-04-03T15:09:27;101107.53;;;20.62
67509;BMP280;54354;44.724;11.284;2023-04-03T15:11:54;101116.78;;;20.61
67509;BMP280;54354;44.724;11.284;2023-04-03T15:14:20;101119.66;;;20.58
67509;BMP280;54354;44.724;11.284;2023-04-03T15:16:48;101118.63;;;20.55
67509;BMP280;54354;44.724;11.284;2023-04-03T15:19:14;101125.78;;;20.58